Terminal Aerodrome Forecast
Issued by NWS Cleveland, OH

Home | Current Version | Previous Version | Graphics & Text | Print | Product List | Glossary On
Versions: 1 2 3 4 5 6 7 8 9 10 11 12 13 14 15
000
FTUS41 KCLE 201700
TAFYNG
TAF
KYNG 201726Z 2018/2118 35008KT P6SM SCT025 OVC250
      TEMPO 2018/2020 BKN025
     FM210900 VRB03KT P6SM OVC035
     FM211600 32008KT P6SM OVC035=

USA.gov is the U.S. government's official web portal to all federal, state and local government web resources and services.